Time;durP1;ratioP1;P1;durP2;ratioP2;P2;SDS_P1;SDS_P2;PMS_P1;PMS_P2;Temp;Humidity;BMP_temperature;BMP_pressure;BME280_temperature;BME280_humidity;BME280_pressure;Samples;Min_cycle;Max_cycle;Signal;HPM_P1;HPM_P2
2023/10/21 00:01:40;;;;;;;4.03;1.40;;;5.10;99.90;;;;;;4998812;28;20070;-69
2023/10/21 00:04:07;;;;;;;2.97;1.40;;;5.10;99.90;;;;;;4996565;28;20042;-63
2023/10/21 00:06:34;;;;;;;4.88;1.65;;;5.20;99.90;;;;;;5002271;28;20046;-64
2023/10/21 00:09:01;;;;;;;3.63;1.63;;;5.20;99.90;;;;;;5003068;28;20052;-62
2023/10/21 00:11:28;;;;;;;1.83;1.30;;;5.20;99.90;;;;;;5003552;28;20052;-62
2023/10/21 00:13:57;;;;;;;8.27;1.85;;;5.10;99.90;;;;;;5004783;28;20490;-65
2023/10/21 00:16:24;;;;;;;4.60;1.42;;;5.20;99.90;;;;;;5001096;28;20050;-63
2023/10/21 00:18:51;;;;;;;2.70;2.00;;;5.20;99.90;;;;;;4997959;28;20046;-61
2023/10/21 00:21:18;;;;;;;3.50;1.98;;;5.20;99.90;;;;;;4999513;28;20053;-64
2023/10/21 00:23:46;;;;;;;1.77;1.00;;;5.10;99.90;;;;;;4997763;28;20038;-63
2023/10/21 00:26:13;;;;;;;2.88;1.63;;;5.10;99.90;;;;;;4999117;28;20182;-61
2023/10/21 00:28:43;;;;;;;4.28;1.85;;;5.10;99.90;;;;;;4999338;28;20049;-63
2023/10/21 00:31:10;;;;;;;3.55;2.17;;;5.10;99.90;;;;;;5009062;28;20049;-62
2023/10/21 00:33:37;;;;;;;3.15;1.42;;;5.10;99.90;;;;;;5004381;28;20038;-64
2023/10/21 00:36:04;;;;;;;3.40;1.13;;;5.20;99.90;;;;;;4989359;28;20050;-63
2023/10/21 00:38:31;;;;;;;4.00;1.98;;;5.10;99.90;;;;;;4985609;28;20054;-61
2023/10/21 00:40:58;;;;;;;1.48;1.35;;;5.10;99.90;;;;;;5004236;28;20465;-70
2023/10/21 00:43:39;;;;;;;4.20;1.65;;;5.20;99.90;;;;;;4998149;28;20053;-63
2023/10/21 00:46:10;;;;;;;5.07;1.40;;;5.20;99.90;;;;;;4998711;28;20600;-61
2023/10/21 00:48:38;;;;;;;4.75;1.65;;;5.20;99.90;;;;;;4989971;28;20137;-68
2023/10/21 00:51:05;;;;;;;6.05;1.77;;;5.20;99.90;;;;;;4999330;28;20045;-62
2023/10/21 00:53:34;;;;;;;2.30;1.65;;;5.20;99.90;;;;;;5005136;28;20049;-64
2023/10/21 00:56:02;;;;;;;6.38;1.80;;;5.20;99.90;;;;;;4990245;28;20104;-65
2023/10/21 00:58:32;;;;;;;3.83;1.38;;;5.20;99.90;;;;;;5002184;28;20040;-65
2023/10/21 01:01:01;;;;;;;1.83;1.50;;;5.20;99.90;;;;;;4988855;28;20517;-64
2023/10/21 01:03:30;;;;;;;4.68;1.30;;;5.20;99.90;;;;;;4998529;28;20060;-65
2023/10/21 01:05:57;;;;;;;1.88;1.25;;;5.10;99.90;;;;;;4988707;28;20049;-65
2023/10/21 01:08:24;;;;;;;2.13;1.60;;;5.10;99.90;;;;;;4996822;28;20081;-61
2023/10/21 01:10:52;;;;;;;8.23;1.65;;;5.20;99.90;;;;;;4995889;28;20080;-62
2023/10/21 01:13:19;;;;;;;1.45;1.33;;;5.10;99.90;;;;;;4986828;28;20645;-64
2023/10/21 01:15:46;;;;;;;3.22;1.30;;;5.20;99.90;;;;;;5002846;28;20042;-63
2023/10/21 01:18:13;;;;;;;1.75;1.27;;;5.10;99.90;;;;;;4998329;28;20049;-63
2023/10/21 01:20:41;;;;;;;4.53;1.27;;;5.10;99.90;;;;;;5003441;28;20074;-62
2023/10/21 01:23:12;;;;;;;11.05;1.75;;;5.10;99.90;;;;;;5003037;28;20053;-63
2023/10/21 01:25:39;;;;;;;4.05;2.50;;;5.10;99.90;;;;;;5000863;28;20553;-65
2023/10/21 01:28:06;;;;;;;4.90;1.88;;;5.20;99.90;;;;;;4988516;28;20079;-62
2023/10/21 01:30:34;;;;;;;3.20;1.77;;;5.10;99.90;;;;;;4998244;28;20050;-62
2023/10/21 01:33:01;;;;;;;3.25;1.77;;;5.20;99.90;;;;;;5001164;28;20046;-65
2023/10/21 01:35:28;;;;;;;7.72;1.80;;;5.10;99.90;;;;;;5004753;28;20148;-63
2023/10/21 01:37:55;;;;;;;3.25;2.30;;;5.20;99.90;;;;;;4999697;28;20050;-64
2023/10/21 01:40:21;;;;;;;2.78;1.58;;;5.20;99.90;;;;;;5002489;28;20492;-63
2023/10/21 01:42:48;;;;;;;5.15;1.73;;;5.20;99.90;;;;;;4981504;28;20443;-64
2023/10/21 01:45:15;;;;;;;2.65;1.67;;;5.20;99.90;;;;;;5005225;28;20046;-65
2023/10/21 01:47:42;;;;;;;3.50;1.58;;;5.30;99.90;;;;;;4985039;28;20499;-67
2023/10/21 01:50:11;;;;;;;4.50;1.80;;;5.30;99.90;;;;;;4994190;28;20554;-65
2023/10/21 01:52:39;;;;;;;4.70;2.10;;;5.20;99.90;;;;;;4998131;28;20523;-65
2023/10/21 01:55:08;;;;;;;4.95;2.15;;;5.30;99.90;;;;;;4997688;28;20054;-62
2023/10/21 01:57:36;;;;;;;4.97;2.92;;;5.30;99.90;;;;;;4996097;28;20050;-63
2023/10/21 02:00:05;;;;;;;4.40;1.60;;;5.30;99.90;;;;;;4981014;28;20507;-62
2023/10/21 02:02:38;;;;;;;5.40;2.35;;;5.30;99.90;;;;;;5003058;28;20128;-65
2023/10/21 02:05:06;;;;;;;6.57;1.95;;;5.30;99.90;;;;;;4988598;28;20512;-63
2023/10/21 02:07:36;;;;;;;2.28;2.03;;;5.30;99.90;;;;;;4998150;28;20042;-62
2023/10/21 02:10:04;;;;;;;4.43;2.15;;;5.30;99.90;;;;;;4997621;28;20057;-61
2023/10/21 02:12:32;;;;;;;4.70;1.95;;;5.30;99.90;;;;;;4968309;28;20054;-62
2023/10/21 02:14:59;;;;;;;3.50;2.55;;;5.30;99.90;;;;;;5005455;28;20057;-64
2023/10/21 02:17:26;;;;;;;2.15;1.90;;;5.30;99.90;;;;;;4980551;28;20076;-62
2023/10/21 02:19:57;;;;;;;6.68;1.65;;;5.30;99.90;;;;;;4985639;28;20050;-62
2023/10/21 02:22:25;;;;;;;2.35;1.73;;;5.30;99.90;;;;;;5001468;28;20073;-62
2023/10/21 02:24:53;;;;;;;4.47;1.60;;;5.30;99.90;;;;;;5004531;28;20038;-64
2023/10/21 02:27:20;;;;;;;6.63;2.13;;;5.30;99.90;;;;;;4986257;28;20061;-67
2023/10/21 02:29:48;;;;;;;3.03;1.40;;;5.30;99.90;;;;;;4984953;28;20076;-67
2023/10/21 02:32:15;;;;;;;4.32;2.53;;;5.40;99.90;;;;;;4993078;28;20049;-61
2023/10/21 02:34:43;;;;;;;3.47;1.75;;;5.40;99.90;;;;;;4987253;28;20124;-69
2023/10/21 02:37:11;;;;;;;4.18;1.48;;;5.40;99.90;;;;;;4988128;28;20097;-67
2023/10/21 02:39:38;;;;;;;2.88;1.75;;;5.40;99.90;;;;;;5001882;28;20045;-63
2023/10/21 02:42:06;;;;;;;2.60;1.50;;;5.40;99.90;;;;;;5005487;28;20050;-66
2023/10/21 02:44:35;;;;;;;6.93;1.67;;;5.40;99.90;;;;;;4999488;28;20459;-62
2023/10/21 02:47:03;;;;;;;6.30;2.10;;;5.40;99.90;;;;;;5006670;28;20108;-63
2023/10/21 02:49:30;;;;;;;6.43;1.95;;;5.40;99.90;;;;;;5004835;28;21056;-70
2023/10/21 02:51:57;;;;;;;4.00;2.97;;;5.40;99.90;;;;;;5000603;28;20058;-62
2023/10/21 02:54:25;;;;;;;4.20;1.88;;;5.40;99.90;;;;;;5000298;28;20116;-63
2023/10/21 02:56:52;;;;;;;4.90;1.73;;;5.40;99.90;;;;;;4988502;28;20145;-63
2023/10/21 02:59:20;;;;;;;4.45;2.22;;;5.40;99.90;;;;;;5000690;28;22166;-61
2023/10/21 03:01:48;;;;;;;11.50;2.35;;;5.40;99.90;;;;;;4981727;28;20034;-64
2023/10/21 03:04:15;;;;;;;2.97;1.73;;;5.40;99.90;;;;;;5000848;28;20057;-64
2023/10/21 03:06:42;;;;;;;4.20;2.00;;;5.40;99.90;;;;;;4997683;28;20432;-65
2023/10/21 03:09:09;;;;;;;3.20;2.22;;;5.40;99.90;;;;;;4998011;28;20590;-62
2023/10/21 03:11:36;;;;;;;3.10;1.92;;;5.40;99.90;;;;;;5002136;28;20041;-62
2023/10/21 03:14:03;;;;;;;5.63;1.73;;;5.40;99.90;;;;;;5003280;28;20660;-63
2023/10/21 03:16:31;;;;;;;6.35;1.77;;;5.40;99.90;;;;;;5007955;28;20064;-62
2023/10/21 03:18:58;;;;;;;6.05;1.90;;;5.40;99.90;;;;;;5003024;28;20055;-65
2023/10/21 03:21:25;;;;;;;4.40;1.60;;;5.40;99.90;;;;;;5003315;28;20049;-61
2023/10/21 03:23:52;;;;;;;7.60;2.33;;;5.40;99.90;;;;;;5003045;28;20057;-63
2023/10/21 03:26:19;;;;;;;2.72;1.60;;;5.40;99.90;;;;;;5007440;28;20120;-67
2023/10/21 03:28:46;;;;;;;3.95;2.55;;;5.40;99.90;;;;;;5002026;28;20046;-65
2023/10/21 03:31:13;;;;;;;3.25;1.45;;;5.40;99.90;;;;;;5007817;28;20045;-62
2023/10/21 03:33:40;;;;;;;5.32;2.00;;;5.30;99.90;;;;;;4997870;28;20495;-69
2023/10/21 03:36:07;;;;;;;4.28;1.98;;;5.30;99.90;;;;;;4995541;28;20049;-62
2023/10/21 03:38:34;;;;;;;2.03;1.92;;;5.30;99.90;;;;;;5001392;28;20047;-62
2023/10/21 03:41:09;;;;;;;4.95;2.03;;;5.30;99.90;;;;;;5003226;28;20553;-67
2023/10/21 03:43:36;;;;;;;2.58;1.92;;;5.30;99.90;;;;;;4999337;28;20046;-63
2023/10/21 03:46:08;;;;;;;7.05;1.90;;;5.30;99.90;;;;;;5004882;28;20077;-62
2023/10/21 03:48:36;;;;;;;5.90;1.75;;;5.30;99.90;;;;;;5000532;28;20132;-66
2023/10/21 03:51:04;;;;;;;5.30;2.30;;;5.30;99.90;;;;;;5004225;28;20073;-61
2023/10/21 03:53:34;;;;;;;4.25;2.17;;;5.30;99.90;;;;;;5001103;28;20038;-62
2023/10/21 03:56:02;;;;;;;4.25;1.42;;;5.40;99.90;;;;;;5002226;28;20832;-65
2023/10/21 03:58:30;;;;;;;5.00;2.17;;;5.40;99.90;;;;;;4999250;28;20042;-64
2023/10/21 04:00:57;;;;;;;4.85;2.42;;;5.30;99.90;;;;;;5003432;28;20072;-61
2023/10/21 04:03:25;;;;;;;2.35;1.60;;;5.40;99.90;;;;;;5002558;28;20096;-61
2023/10/21 04:05:53;;;;;;;4.88;1.65;;;5.40;99.90;;;;;;5002437;28;20042;-64
2023/10/21 04:08:21;;;;;;;3.08;1.95;;;5.40;99.90;;;;;;5006312;28;20054;-62
2023/10/21 04:10:48;;;;;;;3.33;2.25;;;5.40;99.90;;;;;;5003370;28;20050;-63
2023/10/21 04:13:15;;;;;;;6.55;1.88;;;5.40;99.90;;;;;;4999081;28;20065;-61
2023/10/21 04:15:42;;;;;;;3.97;2.20;;;5.40;99.90;;;;;;5001697;28;20557;-68
2023/10/21 04:18:09;;;;;;;6.22;1.85;;;5.40;99.90;;;;;;5000112;28;20053;-63
2023/10/21 04:20:38;;;;;;;2.72;1.67;;;5.40;99.90;;;;;;4984495;28;20073;-61
2023/10/21 04:23:05;;;;;;;2.47;1.80;;;5.40;99.90;;;;;;5003313;28;20081;-64
2023/10/21 04:25:32;;;;;;;2.55;1.70;;;5.40;99.90;;;;;;4998631;28;20093;-62
2023/10/21 04:27:59;;;;;;;5.43;1.73;;;5.40;99.90;;;;;;5005755;28;20049;-60
2023/10/21 04:30:26;;;;;;;3.75;1.70;;;5.40;99.90;;;;;;5005891;28;20042;-63
2023/10/21 04:32:53;;;;;;;6.03;2.40;;;5.40;99.90;;;;;;5004793;28;20034;-62
2023/10/21 04:35:20;;;;;;;3.58;3.28;;;5.50;99.90;;;;;;5003884;28;20058;-61
2023/10/21 04:37:48;;;;;;;3.10;1.42;;;5.50;99.90;;;;;;5003152;28;20050;-62
2023/10/21 04:40:15;;;;;;;5.55;1.65;;;5.50;99.90;;;;;;5004455;28;20038;-61
2023/10/21 04:42:43;;;;;;;2.55;1.52;;;5.50;99.90;;;;;;5005829;28;20737;-61
2023/10/21 04:45:10;;;;;;;2.90;1.88;;;5.50;99.90;;;;;;4999683;28;20046;-63
2023/10/21 04:47:38;;;;;;;3.03;1.77;;;5.50;99.90;;;;;;5003676;28;20049;-62
2023/10/21 04:50:05;;;;;;;3.58;2.10;;;5.50;99.90;;;;;;5001265;28;20041;-64
2023/10/21 04:52:32;;;;;;;4.20;1.73;;;5.50;99.90;;;;;;5004245;28;20115;-65
2023/10/21 04:55:00;;;;;;;6.85;1.92;;;5.50;99.90;;;;;;5001520;28;20054;-64
2023/10/21 04:57:27;;;;;;;5.63;2.22;;;5.50;99.90;;;;;;4996959;28;20177;-61
2023/10/21 04:59:54;;;;;;;9.57;4.03;;;5.60;99.90;;;;;;5002003;28;20048;-65
2023/10/21 05:02:21;;;;;;;2.90;1.45;;;5.50;99.90;;;;;;5002315;28;20061;-61
2023/10/21 05:04:50;;;;;;;5.25;1.67;;;5.50;99.90;;;;;;5001256;28;20038;-62
2023/10/21 05:07:17;;;;;;;2.53;1.40;;;5.50;99.90;;;;;;4997794;28;20105;-65
2023/10/21 05:09:44;;;;;;;2.33;1.52;;;5.50;99.90;;;;;;4998578;28;20396;-64
2023/10/21 05:12:11;;;;;;;3.15;1.75;;;5.50;99.90;;;;;;5002608;28;20168;-63
2023/10/21 05:14:38;;;;;;;5.55;1.92;;;5.50;99.90;;;;;;5001105;28;20223;-64
2023/10/21 05:17:05;;;;;;;1.85;1.35;;;5.50;99.90;;;;;;5003614;28;20050;-67
2023/10/21 05:19:33;;;;;;;3.80;1.88;;;5.50;99.90;;;;;;5001202;28;20069;-62
2023/10/21 05:22:00;;;;;;;4.10;2.00;;;5.50;99.90;;;;;;4998052;28;20124;-62
2023/10/21 05:24:27;;;;;;;3.88;1.67;;;5.50;99.90;;;;;;5003095;28;20104;-62
2023/10/21 05:26:54;;;;;;;5.05;2.17;;;5.50;99.90;;;;;;4995908;28;20458;-68
2023/10/21 05:29:21;;;;;;;4.03;2.25;;;5.50;99.90;;;;;;5001304;28;20050;-61
2023/10/21 05:31:49;;;;;;;3.60;2.72;;;5.50;99.90;;;;;;4999223;28;20492;-63
2023/10/21 05:34:19;;;;;;;3.47;1.73;;;5.50;99.90;;;;;;4998718;28;20077;-62
2023/10/21 05:36:46;;;;;;;3.72;1.40;;;5.50;99.90;;;;;;4999608;28;20042;-63
2023/10/21 05:39:13;;;;;;;5.65;1.83;;;5.50;99.90;;;;;;5000706;28;20149;-63
2023/10/21 05:41:41;;;;;;;2.65;2.00;;;5.50;99.90;;;;;;5004028;28;20575;-66
2023/10/21 05:44:08;;;;;;;6.97;2.70;;;5.50;99.90;;;;;;4999515;28;20443;-62
2023/10/21 05:46:35;;;;;;;3.35;1.27;;;5.50;99.90;;;;;;5001065;28;20535;-62
2023/10/21 05:49:03;;;;;;;4.63;1.77;;;5.50;99.90;;;;;;4996452;28;20054;-63
2023/10/21 05:51:30;;;;;;;5.68;2.00;;;5.50;99.90;;;;;;4998555;28;20046;-62
2023/10/21 05:53:58;;;;;;;4.03;2.13;;;5.50;99.90;;;;;;5002050;28;20050;-61
2023/10/21 05:56:25;;;;;;;4.72;2.05;;;5.50;99.90;;;;;;4999764;28;20570;-64
2023/10/21 05:58:52;;;;;;;2.08;1.73;;;5.50;99.90;;;;;;5000317;28;20112;-63
2023/10/21 06:01:19;;;;;;;5.22;1.20;;;5.50;99.90;;;;;;5002639;28;20054;-61
2023/10/21 06:03:46;;;;;;;3.03;2.00;;;5.50;99.90;;;;;;5001299;28;20096;-65
2023/10/21 06:06:13;;;;;;;5.57;2.35;;;5.50;99.90;;;;;;4998344;28;20042;-67
2023/10/21 06:08:41;;;;;;;5.00;1.38;;;5.60;99.90;;;;;;5001900;28;20128;-71
2023/10/21 06:11:08;;;;;;;3.25;1.80;;;5.50;99.90;;;;;;5005921;28;20066;-64
2023/10/21 06:13:35;;;;;;;7.25;1.65;;;5.60;99.90;;;;;;4999494;28;20049;-64
2023/10/21 06:16:02;;;;;;;4.40;1.60;;;5.60;99.90;;;;;;5001317;28;20042;-61
2023/10/21 06:18:30;;;;;;;3.78;1.65;;;5.50;99.90;;;;;;5001437;28;20050;-61
2023/10/21 06:20:57;;;;;;;3.05;1.67;;;5.60;99.90;;;;;;5003721;28;20074;-64
2023/10/21 06:23:24;;;;;;;3.17;1.77;;;5.60;99.90;;;;;;5000677;28;20092;-61
2023/10/21 06:25:51;;;;;;;4.65;1.70;;;5.60;99.90;;;;;;5002094;28;20046;-61
2023/10/21 06:28:18;;;;;;;7.22;1.77;;;5.60;99.90;;;;;;4996975;28;20128;-64
2023/10/21 06:30:45;;;;;;;3.05;1.58;;;5.60;99.90;;;;;;4996426;28;20049;-67
2023/10/21 06:33:12;;;;;;;6.47;1.77;;;5.60;99.90;;;;;;5000931;28;20053;-63
2023/10/21 06:35:39;;;;;;;4.85;1.88;;;5.60;99.90;;;;;;5002104;28;20034;-65
2023/10/21 06:38:07;;;;;;;3.05;1.88;;;5.60;99.90;;;;;;5001594;28;20045;-64
2023/10/21 06:40:35;;;;;;;4.45;2.35;;;5.60;99.90;;;;;;4996928;28;20053;-62
2023/10/21 06:43:05;;;;;;;3.00;1.58;;;5.60;99.90;;;;;;4998777;28;20075;-62
2023/10/21 06:45:32;;;;;;;3.00;1.90;;;5.70;99.90;;;;;;5001954;28;20464;-62
2023/10/21 06:48:01;;;;;;;3.17;1.83;;;5.70;99.90;;;;;;4998579;28;20452;-63
2023/10/21 06:50:29;;;;;;;5.80;1.57;;;5.70;99.90;;;;;;5004081;28;20056;-63
2023/10/21 06:52:56;;;;;;;7.15;2.33;;;5.70;99.90;;;;;;4999779;28;20516;-63
2023/10/21 06:55:23;;;;;;;6.13;2.50;;;5.70;99.90;;;;;;4994828;28;20452;-64
2023/10/21 06:57:53;;;;;;;4.78;1.88;;;5.70;99.90;;;;;;4993836;28;20052;-67
2023/10/21 07:00:20;;;;;;;3.25;2.20;;;5.70;99.90;;;;;;5002388;28;20105;-62
2023/10/21 07:02:47;;;;;;;5.07;1.90;;;5.70;99.90;;;;;;4999579;28;20077;-64
2023/10/21 07:05:14;;;;;;;4.78;1.77;;;5.70;99.90;;;;;;5001428;28;20039;-67
2023/10/21 07:07:41;;;;;;;3.70;2.35;;;5.70;99.90;;;;;;5000913;28;20389;-65
2023/10/21 07:10:09;;;;;;;2.00;1.63;;;5.70;99.90;;;;;;5000196;28;20074;-64
2023/10/21 07:12:38;;;;;;;6.07;1.92;;;5.70;99.90;;;;;;4993863;28;20049;-62
2023/10/21 07:15:09;;;;;;;2.05;1.50;;;5.80;99.90;;;;;;5003552;28;20046;-64
2023/10/21 07:17:36;;;;;;;2.95;1.33;;;5.80;99.90;;;;;;5001643;28;20049;-65
2023/10/21 07:20:05;;;;;;;4.80;2.45;;;5.80;99.90;;;;;;4999113;28;20097;-66
2023/10/21 07:22:32;;;;;;;7.75;2.28;;;5.80;99.90;;;;;;4999686;28;20124;-62
2023/10/21 07:25:00;;;;;;;3.67;1.83;;;5.80;99.90;;;;;;4996710;28;20042;-63
2023/10/21 07:27:27;;;;;;;4.60;2.10;;;5.80;99.90;;;;;;4998794;28;20046;-63
2023/10/21 07:29:57;;;;;;;3.90;2.40;;;5.80;99.90;;;;;;5004720;28;20056;-61
2023/10/21 07:32:24;;;;;;;3.20;1.92;;;5.80;99.90;;;;;;5001071;28;20053;-61
2023/10/21 07:34:51;;;;;;;4.95;1.65;;;5.80;99.90;;;;;;5000897;28;20100;-62
2023/10/21 07:37:18;;;;;;;3.00;1.27;;;5.80;99.90;;;;;;4998510;28;20046;-65
2023/10/21 07:39:45;;;;;;;3.30;2.55;;;5.80;99.90;;;;;;5002101;28;20128;-65
2023/10/21 07:42:15;;;;;;;5.40;1.73;;;5.80;99.90;;;;;;4999119;28;20054;-63
2023/10/21 07:44:42;;;;;;;5.47;2.13;;;5.90;99.90;;;;;;4998946;28;20052;-63
2023/10/21 07:47:09;;;;;;;4.50;2.13;;;5.90;99.90;;;;;;5001474;28;20042;-64
2023/10/21 07:49:36;;;;;;;5.10;1.60;;;5.90;99.90;;;;;;4999993;28;21260;-61
2023/10/21 07:52:03;;;;;;;4.45;1.60;;;5.90;99.90;;;;;;4999365;28;20054;-63
2023/10/21 07:54:30;;;;;;;3.65;2.15;;;5.90;99.90;;;;;;4993572;28;20042;-68
2023/10/21 07:56:58;;;;;;;7.05;2.30;;;5.90;99.90;;;;;;4997426;28;20135;-64
2023/10/21 07:59:27;;;;;;;3.70;2.20;;;5.90;99.90;;;;;;5007854;28;20090;-61
2023/10/21 08:01:54;;;;;;;2.38;1.58;;;6.00;99.90;;;;;;5005571;28;20046;-62
2023/10/21 08:04:22;;;;;;;3.00;1.73;;;6.00;99.90;;;;;;5000390;28;20107;-62
2023/10/21 08:06:49;;;;;;;2.25;1.55;;;6.00;99.90;;;;;;5004598;28;20054;-62
2023/10/21 08:09:18;;;;;;;2.72;1.63;;;6.00;99.90;;;;;;5004335;28;20046;-62
2023/10/21 08:11:45;;;;;;;5.97;1.63;;;6.00;99.90;;;;;;5007921;28;20050;-62
2023/10/21 08:14:12;;;;;;;4.05;1.52;;;6.00;99.90;;;;;;5003627;28;20116;-62
2023/10/21 08:16:39;;;;;;;3.83;1.90;;;6.00;99.90;;;;;;5006549;28;20038;-62
2023/10/21 08:19:06;;;;;;;9.38;1.95;;;6.00;99.90;;;;;;4999332;28;20133;-63
2023/10/21 08:21:34;;;;;;;1.63;1.40;;;6.10;99.90;;;;;;5002182;28;20070;-62
2023/10/21 08:24:04;;;;;;;6.93;1.95;;;6.10;99.90;;;;;;5001086;28;20046;-62
2023/10/21 08:26:31;;;;;;;4.38;2.05;;;6.10;99.90;;;;;;5005184;28;20069;-61
2023/10/21 08:28:59;;;;;;;2.75;2.00;;;6.10;99.90;;;;;;5000418;28;20046;-65
2023/10/21 08:31:28;;;;;;;6.43;2.13;;;6.10;99.90;;;;;;5002297;28;20471;-68
2023/10/21 08:33:55;;;;;;;5.70;2.13;;;6.10;99.90;;;;;;4998588;28;20432;-62
2023/10/21 08:36:23;;;;;;;2.05;1.85;;;6.00;99.90;;;;;;5006481;28;20037;-63
2023/10/21 08:38:50;;;;;;;5.35;2.65;;;6.00;99.90;;;;;;5003183;28;20551;-65
2023/10/21 08:41:17;;;;;;;8.63;2.65;;;6.00;99.90;;;;;;5001375;28;20038;-62
2023/10/21 08:43:49;;;;;;;8.68;2.40;;;5.90;99.90;;;;;;4995943;28;20448;-65
2023/10/21 08:46:17;;;;;;;3.75;1.92;;;5.80;99.90;;;;;;5000113;28;20070;-63
2023/10/21 08:48:48;;;;;;;4.85;1.92;;;5.80;99.90;;;;;;5004058;28;20121;-64
2023/10/21 08:51:17;;;;;;;;;;;5.80;99.90;;;;;;5005171;28;20658;-67
2023/10/21 08:53:46;;;;;;;5.80;2.03;;;5.80;99.90;;;;;;4996577;28;20015;-67
2023/10/21 08:56:14;;;;;;;6.90;2.10;;;5.70;99.90;;;;;;4999686;28;20057;-61
2023/10/21 08:58:42;;;;;;;6.15;2.50;;;5.70;99.90;;;;;;4992550;28;20495;-61
2023/10/21 09:01:11;;;;;;;5.53;2.15;;;5.70;99.90;;;;;;5001714;28;20054;-64
2023/10/21 09:03:38;;;;;;;2.78;1.70;;;5.60;99.90;;;;;;4998801;28;20050;-65
2023/10/21 09:06:10;;;;;;;8.98;2.22;;;5.60;99.90;;;;;;4998348;28;20038;-64
2023/10/21 09:08:40;;;;;;;4.80;2.53;;;5.60;99.90;;;;;;5004818;28;20037;-62
2023/10/21 09:11:13;;;;;;;5.15;3.80;;;5.60;99.90;;;;;;5000578;28;20096;-71
2023/10/21 09:13:41;;;;;;;4.35;2.42;;;5.50;99.90;;;;;;4999866;28;20101;-65
2023/10/21 09:16:31;;;;;;;4.78;2.53;;;5.50;99.90;;;;;;4996034;28;20069;-63
2023/10/21 09:18:59;;;;;;;;;;;5.50;99.90;;;;;;5000016;28;20093;-64
2023/10/21 09:21:29;;;;;;;5.30;2.15;;;5.50;99.90;;;;;;5001511;28;20368;-61
2023/10/21 09:23:56;;;;;;;4.45;2.50;;;5.40;99.90;;;;;;5001869;28;20053;-61
2023/10/21 09:26:41;;;;;;;4.25;3.95;;;5.40;99.90;;;;;;4998555;28;20045;-62
2023/10/21 09:29:13;;;;;;;7.78;2.28;;;5.40;99.90;;;;;;5000559;28;20042;-64
2023/10/21 09:31:47;;;;;;;5.18;2.60;;;5.40;99.90;;;;;;5005157;28;20072;-64
2023/10/21 09:34:33;;;;;;;2.13;1.92;;;5.40;99.90;;;;;;5000503;28;20042;-62
2023/10/21 09:37:04;;;;;;;4.05;2.88;;;5.30;99.90;;;;;;5002581;28;20038;-66
2023/10/21 09:39:36;;;;;;;3.38;1.90;;;5.30;99.90;;;;;;5000816;28;20392;-64
2023/10/21 09:42:06;;;;;;;5.05;3.03;;;5.30;99.90;;;;;;5001312;28;20599;-65
2023/10/21 09:44:38;;;;;;;3.97;2.00;;;5.30;99.90;;;;;;5001935;28;20506;-65
2023/10/21 09:47:06;;;;;;;6.15;2.35;;;5.20;99.90;;;;;;4998316;28;20741;-64
2023/10/21 09:49:40;;;;;;;4.95;3.75;;;5.20;99.90;;;;;;5004352;28;20450;-65
2023/10/21 09:52:24;;;;;;;3.65;2.65;;;5.20;99.90;;;;;;4994466;28;20480;-63
2023/10/21 09:55:10;;;;;;;5.47;3.08;;;5.20;99.90;;;;;;5001234;28;20054;-63
2023/10/21 09:57:37;;;;;;;6.30;3.55;;;5.20;99.90;;;;;;4998624;28;20040;-61
2023/10/21 10:00:09;;;;;;;8.10;2.85;;;5.20;99.90;;;;;;4998670;28;20050;-61
2023/10/21 10:02:36;;;;;;;4.75;2.78;;;5.20;99.90;;;;;;4999897;28;20050;-62
2023/10/21 10:05:08;;;;;;;5.85;2.88;;;5.20;99.90;;;;;;4999566;28;20069;-64
2023/10/21 10:07:39;;;;;;;5.55;3.30;;;5.20;99.90;;;;;;4998641;28;20483;-62
2023/10/21 10:10:12;;;;;;;6.30;2.90;;;5.20;99.90;;;;;;4999504;28;20048;-62
2023/10/21 10:12:48;;;;;;;3.38;3.05;;;5.20;99.90;;;;;;4997349;28;20542;-60
2023/10/21 10:15:34;;;;;;;2.85;2.55;;;5.20;99.90;;;;;;4988475;28;20365;-60
2023/10/21 10:18:29;;;;;;;4.15;2.83;;;5.20;99.90;;;;;;5000418;28;20054;-62
2023/10/21 10:20:56;;;;;;;5.00;2.80;;;5.20;99.90;;;;;;4997640;28;20063;-61
2023/10/21 10:23:26;;;;;;;3.72;2.55;;;5.30;99.90;;;;;;4997055;28;20461;-61
2023/10/21 10:25:55;;;;;;;6.72;2.40;;;5.20;99.90;;;;;;5000113;28;20045;-71
2023/10/21 10:28:26;;;;;;;4.82;2.63;;;5.30;99.90;;;;;;5002619;28;20050;-60
2023/10/21 10:30:56;;;;;;;4.35;3.17;;;5.30;99.90;;;;;;4996543;28;20045;-62
2023/10/21 10:33:25;;;;;;;5.95;2.70;;;5.20;99.90;;;;;;4995345;28;20096;-69
2023/10/21 10:35:53;;;;;;;6.47;3.33;;;5.20;99.90;;;;;;4999282;28;20065;-63
2023/10/21 10:38:28;;;;;;;6.35;2.83;;;5.20;99.90;;;;;;4999896;28;20070;-64
2023/10/21 10:41:06;;;;;;;6.20;2.97;;;5.20;99.90;;;;;;5004038;28;20044;-62
2023/10/21 10:43:37;;;;;;;5.80;3.58;;;5.30;99.90;;;;;;4995191;28;20086;-62
2023/10/21 10:46:05;;;;;;;4.25;2.83;;;5.30;99.90;;;;;;5002177;28;20483;-63
2023/10/21 10:48:34;;;;;;;5.32;2.67;;;5.30;99.90;;;;;;4998795;28;20042;-70
2023/10/21 10:51:15;;;;;;;11.30;3.78;;;5.30;99.90;;;;;;5003528;28;20123;-62
2023/10/21 10:53:55;;;;;;;;;;;5.30;99.90;;;;;;5000731;28;20038;-63
2023/10/21 10:56:22;;;;;;;3.30;2.43;;;5.30;99.90;;;;;;5000118;28;19999;-62
2023/10/21 10:58:49;;;;;;;3.88;2.63;;;5.30;99.90;;;;;;4980196;28;20819;-66
2023/10/21 11:01:27;;;;;;;4.88;2.50;;;5.40;99.90;;;;;;5005975;28;20057;-63
2023/10/21 11:03:58;;;;;;;6.25;2.92;;;5.40;99.90;;;;;;4995652;28;20057;-64
2023/10/21 11:06:31;;;;;;;3.60;2.70;;;5.40;99.90;;;;;;5000423;28;20145;-62
2023/10/21 11:08:59;;;;;;;4.65;2.20;;;5.40;99.90;;;;;;4998890;28;20045;-66
2023/10/21 11:11:29;;;;;;;7.32;2.85;;;5.40;99.90;;;;;;4995455;28;20056;-61
2023/10/21 11:13:56;;;;;;;4.43;2.80;;;5.40;99.90;;;;;;4994931;28;20049;-62
2023/10/21 11:16:23;;;;;;;6.00;2.70;;;5.40;99.90;;;;;;4998228;28;20057;-66
2023/10/21 11:18:52;;;;;;;6.63;2.80;;;5.40;99.90;;;;;;5000778;28;20043;-66
2023/10/21 11:21:39;;;;;;;5.57;2.45;;;5.40;99.90;;;;;;5001963;28;20540;-61
2023/10/21 11:24:08;;;;;;;4.22;2.38;;;5.40;99.90;;;;;;4998058;28;20042;-64
2023/10/21 11:26:35;;;;;;;4.78;2.80;;;5.50;99.90;;;;;;4996262;28;20121;-61
2023/10/21 11:29:06;;;;;;;5.05;2.63;;;5.40;99.90;;;;;;5000308;28;20444;-61
2023/10/21 11:31:36;;;;;;;9.18;2.25;;;5.50;99.90;;;;;;4998712;28;21807;-61
2023/10/21 11:34:06;;;;;;;;;;;5.50;99.90;;;;;;5001984;28;20056;-62
2023/10/21 11:36:35;;;;;;;8.35;3.35;;;5.40;99.90;;;;;;5004855;28;19925;-61
2023/10/21 11:39:15;;;;;;;6.15;3.03;;;5.40;99.90;;;;;;5001979;28;20041;-62
2023/10/21 11:41:47;;;;;;;4.97;2.10;;;5.50;99.90;;;;;;5004340;28;20041;-62
2023/10/21 11:44:23;;;;;;;5.85;3.58;;;5.50;99.90;;;;;;4996734;28;20042;-62
2023/10/21 11:46:50;;;;;;;4.70;2.22;;;5.50;99.90;;;;;;5002776;28;20046;-68
2023/10/21 11:49:23;;;;;;;7.82;2.63;;;5.50;99.90;;;;;;5001196;28;20747;-62
2023/10/21 11:51:52;;;;;;;7.90;2.45;;;5.50;99.90;;;;;;4994386;28;20053;-64
2023/10/21 11:57:41;;;;;;;6.68;2.50;;;5.50;99.90;;;;;;4921469;29;20636;-67
2023/10/21 12:12:15;;;;;;;2.67;2.10;;;5.50;99.90;;;;;;5002428;28;20056;-61
2023/10/21 12:20:29;;;;;;;5.60;2.33;;;5.50;99.90;;;;;;5000124;28;20172;-67
2023/10/21 12:31:24;;;;;;;3.92;2.65;;;5.40;99.90;;;;;;4999408;28;20081;-61
2023/10/21 12:38:40;;;;;;;4.78;2.08;;;5.50;99.90;;;;;;5000264;28;20126;-63
2023/10/21 12:41:20;;;;;;;3.22;1.95;;;5.40;99.90;;;;;;5004335;28;20049;-66
2023/10/21 12:43:48;;;;;;;4.22;3.25;;;5.40;99.90;;;;;;4993705;28;20050;-63
2023/10/21 12:46:19;;;;;;;3.97;2.00;;;5.40;99.90;;;;;;4998690;28;20070;-62
2023/10/21 12:48:57;;;;;;;2.30;1.25;;;5.40;99.90;;;;;;4998550;28;20042;-64
2023/10/21 12:51:36;;;;;;;3.88;2.17;;;5.40;99.90;;;;;;5004279;28;20047;-61
2023/10/21 12:54:09;;;;;;;11.63;2.25;;;5.40;99.90;;;;;;5005141;28;20112;-63
2023/10/21 12:56:40;;;;;;;8.65;2.70;;;5.30;99.90;;;;;;5006350;28;20060;-62
2023/10/21 12:59:07;;;;;;;13.82;4.32;;;5.30;99.90;;;;;;4994043;28;20042;-62
2023/10/21 13:01:35;;;;;;;3.28;2.03;;;5.30;99.90;;;;;;5000171;28;20035;-61
2023/10/21 13:04:04;;;;;;;4.65;2.10;;;5.30;99.90;;;;;;5003159;28;20058;-62
2023/10/21 13:06:33;;;;;;;10.32;1.73;;;5.30;99.90;;;;;;4997244;28;20385;-63
2023/10/21 13:09:00;;;;;;;3.95;2.00;;;5.30;99.90;;;;;;4999926;28;20499;-61
2023/10/21 13:11:27;;;;;;;5.38;1.95;;;5.30;99.90;;;;;;5004271;28;20688;-61
2023/10/21 13:13:55;;;;;;;4.68;1.75;;;5.20;99.90;;;;;;4993998;28;20465;-64
2023/10/21 13:16:22;;;;;;;7.05;2.15;;;5.20;99.90;;;;;;5006553;28;20045;-61
2023/10/21 13:18:51;;;;;;;2.35;1.65;;;5.30;99.90;;;;;;5001811;28;20054;-64
2023/10/21 13:21:18;;;;;;;2.97;2.25;;;5.20;99.90;;;;;;5005672;28;20627;-60
2023/10/21 13:23:45;;;;;;;4.00;2.28;;;5.20;99.90;;;;;;4997737;28;20049;-60
2023/10/21 13:26:12;;;;;;;10.07;1.85;;;5.20;99.90;;;;;;4998508;28;20045;-61
2023/10/21 13:28:39;;;;;;;6.05;2.13;;;5.20;99.90;;;;;;4999418;28;20097;-61
2023/10/21 13:31:06;;;;;;;2.67;1.67;;;5.20;99.90;;;;;;5001693;28;20116;-63
2023/10/21 13:33:34;;;;;;;3.80;1.30;;;5.20;99.90;;;;;;4999238;28;20042;-64
2023/10/21 13:36:01;;;;;;;3.30;1.23;;;5.10;99.90;;;;;;5001839;28;20060;-60
2023/10/21 13:38:28;;;;;;;5.07;2.20;;;5.10;99.90;;;;;;4999312;28;20045;-60
2023/10/21 13:40:56;;;;;;;3.05;1.10;;;5.10;99.90;;;;;;5000458;28;20494;-60